createdAt,value
2023-12-12T00:01:25.102Z,4.60
2023-12-12T00:03:52.596Z,4.60
2023-12-12T00:06:19.667Z,4.60
2023-12-12T00:08:46.595Z,4.60
2023-12-12T00:11:13.429Z,4.60
2023-12-12T00:13:40.794Z,4.60
2023-12-12T00:16:08.569Z,4.60
2023-12-12T00:18:36.653Z,4.50
2023-12-12T00:21:04.478Z,4.50
2023-12-12T00:23:31.456Z,4.50
2023-12-12T00:25:58.828Z,4.50
2023-12-12T00:28:26.845Z,4.50
2023-12-12T00:30:53.783Z,4.40
2023-12-12T00:33:20.900Z,4.40
2023-12-12T00:35:47.654Z,4.40
2023-12-12T00:38:14.348Z,4.40
2023-12-12T00:40:41.119Z,4.40
2023-12-12T00:43:07.945Z,4.40
2023-12-12T00:45:34.624Z,4.40
2023-12-12T00:48:01.427Z,4.40
2023-12-12T00:50:28.684Z,4.40
2023-12-12T00:52:55.710Z,4.40
2023-12-12T00:55:22.470Z,4.40
2023-12-12T00:57:49.274Z,4.40
2023-12-12T01:00:16.730Z,4.40
2023-12-12T01:02:43.500Z,4.40
2023-12-12T01:05:10.420Z,4.30
2023-12-12T01:07:37.292Z,4.30
2023-12-12T01:10:05.214Z,4.30
2023-12-12T01:12:31.937Z,4.30
2023-12-12T01:15:01.474Z,4.40
2023-12-12T01:17:29.775Z,4.40
2023-12-12T01:19:56.851Z,4.40
2023-12-12T01:22:23.726Z,4.40
2023-12-12T01:24:50.475Z,4.50
2023-12-12T01:27:17.348Z,4.40
2023-12-12T01:29:44.559Z,4.40
2023-12-12T01:32:11.255Z,4.50
2023-12-12T01:34:38.139Z,4.50
2023-12-12T01:37:04.970Z,4.50
2023-12-12T01:39:31.718Z,4.50
2023-12-12T01:41:58.412Z,4.50
2023-12-12T01:44:25.118Z,4.60
2023-12-12T01:46:52.460Z,4.50
2023-12-12T01:49:19.533Z,4.50
2023-12-12T01:51:47.612Z,4.50
2023-12-12T01:54:16.675Z,4.40
2023-12-12T01:56:46.541Z,4.40
2023-12-12T01:59:13.343Z,4.40
2023-12-12T02:01:41.067Z,4.40
2023-12-12T02:04:08.612Z,4.30
2023-12-12T02:06:37.279Z,4.30
2023-12-12T02:09:05.594Z,4.30
2023-12-12T02:11:32.500Z,4.20
2023-12-12T02:13:59.397Z,4.30
2023-12-12T02:16:26.357Z,4.20
2023-12-12T02:18:53.141Z,4.20
2023-12-12T02:21:23.045Z,4.20
2023-12-12T02:23:49.784Z,4.20
2023-12-12T02:26:17.524Z,4.10
2023-12-12T02:28:44.398Z,4.10
2023-12-12T02:31:11.435Z,4.10
2023-12-12T02:33:38.260Z,4.00
2023-12-12T02:36:05.752Z,4.10
2023-12-12T02:38:32.503Z,4.10
2023-12-12T02:40:59.209Z,4.00
2023-12-12T02:43:26.004Z,4.00
2023-12-12T02:45:52.775Z,4.00
2023-12-12T02:48:19.673Z,4.00
2023-12-12T02:50:46.512Z,4.00
2023-12-12T02:53:13.302Z,3.90
2023-12-12T02:55:40.114Z,3.90
2023-12-12T02:58:06.957Z,3.90
2023-12-12T03:00:33.840Z,3.90
2023-12-12T03:03:00.671Z,3.90
2023-12-12T03:05:27.503Z,3.90
2023-12-12T03:07:54.299Z,3.90
2023-12-12T03:10:21.153Z,3.90
2023-12-12T03:12:47.954Z,3.90
2023-12-12T03:15:14.738Z,3.80
2023-12-12T03:17:41.532Z,3.90
2023-12-12T03:20:08.979Z,3.90
2023-12-12T03:22:35.775Z,3.90
2023-12-12T03:25:02.699Z,3.90
2023-12-12T03:27:29.924Z,4.00
2023-12-12T03:29:56.980Z,4.00
2023-12-12T03:32:23.888Z,4.00
2023-12-12T03:34:50.648Z,4.00
2023-12-12T03:37:17.865Z,4.00
2023-12-12T03:39:44.720Z,3.90
2023-12-12T03:42:11.512Z,3.90
2023-12-12T03:44:38.301Z,3.90
2023-12-12T03:47:05.217Z,3.90
2023-12-12T03:49:32.241Z,3.90
2023-12-12T03:51:59.197Z,3.90
2023-12-12T03:54:26.871Z,3.90
2023-12-12T03:56:53.751Z,3.80
2023-12-12T03:59:20.509Z,3.80
2023-12-12T04:01:50.595Z,3.80
2023-12-12T04:04:20.186Z,3.70
2023-12-12T04:06:48.053Z,3.80
2023-12-12T04:09:15.068Z,3.80
2023-12-12T04:11:41.839Z,3.70
2023-12-12T04:14:08.728Z,3.70
2023-12-12T04:16:35.610Z,3.70
2023-12-12T04:19:02.705Z,3.70
2023-12-12T04:21:30.568Z,3.60
2023-12-12T04:23:57.565Z,3.70
2023-12-12T04:26:24.262Z,3.60
2023-12-12T04:28:51.074Z,3.60
2023-12-12T04:31:18.405Z,3.60
2023-12-12T04:33:45.462Z,3.60
2023-12-12T04:36:15.856Z,3.60
2023-12-12T04:38:43.302Z,3.60
2023-12-12T04:41:10.149Z,3.60
2023-12-12T04:43:37.076Z,3.60
2023-12-12T04:46:04.269Z,3.60
2023-12-12T04:48:31.244Z,3.60
2023-12-12T04:50:58.178Z,3.60
2023-12-12T04:53:25.072Z,3.60
2023-12-12T04:55:51.802Z,3.60
2023-12-12T04:58:18.624Z,3.60
2023-12-12T05:00:45.500Z,3.60
2023-12-12T05:03:12.264Z,3.60
2023-12-12T05:05:39.183Z,3.70
2023-12-12T05:08:06.000Z,3.70
2023-12-12T05:10:32.766Z,3.70
2023-12-12T05:13:00.964Z,3.70
2023-12-12T05:15:29.451Z,3.70
2023-12-12T05:17:56.466Z,3.70
2023-12-12T05:20:23.521Z,3.70
2023-12-12T05:22:50.561Z,3.70
2023-12-12T05:25:17.544Z,3.60
2023-12-12T05:27:44.445Z,3.60
2023-12-12T05:30:13.893Z,3.60
2023-12-12T05:32:41.047Z,3.70
2023-12-12T05:35:09.381Z,3.70
2023-12-12T05:37:36.751Z,3.70
2023-12-12T05:40:06.182Z,3.70
2023-12-12T05:42:33.032Z,3.70
2023-12-12T05:44:59.880Z,3.70
2023-12-12T05:47:26.702Z,3.80
2023-12-12T05:49:53.510Z,3.70
2023-12-12T05:52:20.297Z,3.80
2023-12-12T05:54:47.625Z,3.80
2023-12-12T05:57:14.413Z,3.80
2023-12-12T05:59:41.158Z,3.80
2023-12-12T06:02:08.757Z,3.90
2023-12-12T06:04:37.068Z,3.90
2023-12-12T06:07:04.079Z,3.90
2023-12-12T06:09:31.074Z,3.90
2023-12-12T06:11:58.627Z,3.90
2023-12-12T06:14:26.177Z,3.90
2023-12-12T06:16:52.926Z,3.90
2023-12-12T06:19:19.691Z,3.90
2023-12-12T06:21:47.811Z,3.90
2023-12-12T06:24:15.153Z,3.90
2023-12-12T06:26:41.973Z,3.90
2023-12-12T06:29:10.097Z,4.00
2023-12-12T06:31:37.010Z,4.00
2023-12-12T06:34:03.962Z,4.00
2023-12-12T06:36:30.877Z,4.00
2023-12-12T06:38:57.873Z,4.00
2023-12-12T06:41:24.658Z,4.00
2023-12-12T06:43:51.580Z,4.00
2023-12-12T06:46:19.531Z,4.10
2023-12-12T06:48:46.379Z,4.10
2023-12-12T06:51:13.093Z,4.10
2023-12-12T06:53:39.862Z,4.00
2023-12-12T06:56:07.234Z,4.10
2023-12-12T06:58:34.629Z,4.10
2023-12-12T07:01:01.473Z,4.10
2023-12-12T07:03:28.320Z,4.20
2023-12-12T07:05:55.324Z,4.20
2023-12-12T07:08:22.569Z,4.20
2023-12-12T07:10:49.950Z,4.20
2023-12-12T07:13:16.862Z,4.20
2023-12-12T07:15:43.895Z,4.20
2023-12-12T07:18:14.744Z,4.20
2023-12-12T07:20:45.262Z,4.20
2023-12-12T07:23:13.534Z,4.30
2023-12-12T07:25:41.419Z,4.30
2023-12-12T07:28:08.457Z,4.30
2023-12-12T07:30:35.377Z,4.30
2023-12-12T07:33:02.276Z,4.30
2023-12-12T07:35:29.266Z,4.30
2023-12-12T07:37:55.979Z,4.30
2023-12-12T07:40:22.910Z,4.30
2023-12-12T07:42:50.199Z,4.30
2023-12-12T07:45:17.077Z,4.20
2023-12-12T07:47:44.670Z,4.30
2023-12-12T07:50:11.959Z,4.30
2023-12-12T07:52:39.053Z,4.30
2023-12-12T07:55:06.619Z,4.40
2023-12-12T07:57:34.441Z,4.40
2023-12-12T08:00:01.614Z,4.40
2023-12-12T08:02:28.650Z,4.40
2023-12-12T08:04:55.571Z,4.50
2023-12-12T08:07:24.009Z,4.50
2023-12-12T08:09:51.322Z,4.50
2023-12-12T08:12:18.417Z,4.50
2023-12-12T08:14:47.462Z,4.50
2023-12-12T08:17:15.743Z,4.50
2023-12-12T08:19:43.242Z,4.50
2023-12-12T08:22:10.258Z,4.60
2023-12-12T08:24:37.111Z,4.60
2023-12-12T08:27:04.013Z,4.60
2023-12-12T08:29:32.546Z,4.60
2023-12-12T08:31:59.640Z,4.70
2023-12-12T08:34:26.565Z,4.70
2023-12-12T08:36:53.435Z,4.80
2023-12-12T08:39:20.338Z,4.90
2023-12-12T08:41:47.268Z,5.00
2023-12-12T08:44:14.036Z,5.00
2023-12-12T08:46:45.025Z,5.10
2023-12-12T08:49:12.137Z,5.10
2023-12-12T08:51:40.442Z,5.20
2023-12-12T08:54:07.749Z,5.30
2023-12-12T08:56:34.840Z,5.30
2023-12-12T08:59:01.626Z,5.30
2023-12-12T09:01:28.536Z,5.30
2023-12-12T09:03:55.786Z,5.30
2023-12-12T09:06:23.179Z,5.30
2023-12-12T09:08:50.120Z,5.30
2023-12-12T09:11:16.934Z,5.30
2023-12-12T09:13:44.235Z,5.30
2023-12-12T09:16:11.273Z,5.30
2023-12-12T09:18:39.049Z,5.30
2023-12-12T09:21:08.079Z,5.30
2023-12-12T09:23:35.960Z,5.30
2023-12-12T09:26:02.961Z,5.30
2023-12-12T09:28:29.779Z,5.30
2023-12-12T09:30:56.888Z,5.30
2023-12-12T09:33:23.869Z,5.30
2023-12-12T09:35:51.281Z,5.30
2023-12-12T09:38:18.060Z,5.30
2023-12-12T09:40:44.946Z,5.30
2023-12-12T09:43:13.670Z,5.40
2023-12-12T09:45:46.642Z,5.40
2023-12-12T09:48:18.351Z,5.40
2023-12-12T09:50:48.491Z,5.50
2023-12-12T09:53:15.573Z,5.40
2023-12-12T09:55:42.927Z,5.40
2023-12-12T09:58:09.692Z,5.40
2023-12-12T10:00:36.659Z,5.40
2023-12-12T10:03:06.653Z,5.40
2023-12-12T10:05:38.598Z,5.50
2023-12-12T10:08:13.910Z,5.50
2023-12-12T10:10:44.416Z,5.50
2023-12-12T10:13:11.873Z,5.50
2023-12-12T10:15:38.658Z,5.50
2023-12-12T10:18:05.460Z,5.60
2023-12-12T10:20:33.164Z,5.50
2023-12-12T10:23:02.353Z,5.50
2023-12-12T10:25:30.494Z,5.60
2023-12-12T10:27:58.630Z,5.80
2023-12-12T10:30:25.694Z,5.90
2023-12-12T10:32:53.617Z,6.00
2023-12-12T10:35:25.041Z,6.00
2023-12-12T10:37:52.650Z,6.00
2023-12-12T10:40:23.922Z,5.90
2023-12-12T10:42:51.746Z,5.80
2023-12-12T10:45:19.333Z,5.80
2023-12-12T10:47:52.746Z,5.80
2023-12-12T10:50:20.326Z,5.80
2023-12-12T10:55:27.051Z,5.90
2023-12-12T10:57:56.730Z,5.90
2023-12-12T11:00:24.096Z,5.90
2023-12-12T11:02:50.854Z,5.80
2023-12-12T11:05:18.560Z,6.00
2023-12-12T11:07:49.797Z,6.00
2023-12-12T11:10:20.784Z,6.00
2023-12-12T11:13:04.374Z,6.10
2023-12-12T11:15:48.368Z,6.10
2023-12-12T11:18:25.229Z,6.20
2023-12-12T11:20:52.156Z,6.20
2023-12-12T11:24:10.249Z,6.30
2023-12-12T11:26:39.603Z,6.40
2023-12-12T11:29:07.885Z,6.50
2023-12-12T11:31:39.097Z,6.50
2023-12-12T11:34:13.618Z,6.60
2023-12-12T11:36:52.482Z,6.60
2023-12-12T11:39:32.149Z,6.60
2023-12-12T11:42:00.141Z,6.60
2023-12-12T11:44:41.083Z,6.60
2023-12-12T11:47:19.999Z,6.70
2023-12-12T11:49:49.127Z,6.80
2023-12-12T11:52:39.475Z,6.80
2023-12-12T11:55:08.185Z,6.70
2023-12-12T11:57:37.608Z,6.70
2023-12-12T12:00:06.569Z,6.80
2023-12-12T12:02:34.050Z,6.90
2023-12-12T12:05:01.198Z,6.90
2023-12-12T12:07:28.548Z,6.90
2023-12-12T12:09:55.510Z,6.90
2023-12-12T12:12:25.419Z,7.00
2023-12-12T12:14:52.234Z,7.10
2023-12-12T12:17:19.848Z,7.20
2023-12-12T12:19:46.818Z,7.20
2023-12-12T12:22:16.244Z,7.30
2023-12-12T12:24:47.483Z,7.30
2023-12-12T12:27:15.568Z,7.40
2023-12-12T12:29:42.736Z,7.30
2023-12-12T12:32:14.557Z,7.40
2023-12-12T12:34:43.031Z,7.40
2023-12-12T12:37:33.124Z,7.30
2023-12-12T12:40:00.105Z,7.30
2023-12-12T12:42:37.859Z,7.50
2023-12-12T12:45:06.947Z,7.40
2023-12-12T12:47:34.601Z,7.40
2023-12-12T12:50:05.043Z,7.40
2023-12-12T12:52:32.522Z,7.40
2023-12-12T12:54:59.761Z,7.50
2023-12-12T12:57:26.997Z,7.40
2023-12-12T12:59:53.944Z,7.50
2023-12-12T13:02:23.443Z,7.50
2023-12-12T13:04:52.046Z,7.50
2023-12-12T13:07:19.000Z,7.50
2023-12-12T13:09:45.920Z,7.50
2023-12-12T13:12:13.062Z,7.60
2023-12-12T13:14:41.536Z,7.50
2023-12-12T13:17:09.762Z,7.60
2023-12-12T13:19:36.839Z,7.60
2023-12-12T13:22:04.020Z,7.60
2023-12-12T13:24:31.701Z,7.60
2023-12-12T13:26:58.938Z,7.70
2023-12-12T13:29:25.783Z,7.70
2023-12-12T13:31:52.773Z,7.70
2023-12-12T13:34:21.571Z,7.70
2023-12-12T13:36:52.342Z,7.70
2023-12-12T13:42:00.198Z,7.90
2023-12-12T13:44:26.953Z,7.90
2023-12-12T13:46:53.667Z,7.90
2023-12-12T13:49:20.521Z,8.00
2023-12-12T13:51:48.271Z,8.00
2023-12-12T13:54:15.287Z,8.00
2023-12-12T13:56:42.305Z,8.00
2023-12-12T13:59:09.209Z,7.90
2023-12-12T14:01:36.338Z,8.00
2023-12-12T14:04:04.010Z,7.90
2023-12-12T14:06:30.886Z,7.90
2023-12-12T14:08:57.640Z,7.90
2023-12-12T14:11:26.261Z,7.90
2023-12-12T14:13:53.635Z,7.90
2023-12-12T14:16:28.028Z,7.90
2023-12-12T14:18:56.959Z,7.90
2023-12-12T14:21:23.759Z,7.90
2023-12-12T14:23:50.514Z,7.90
2023-12-12T14:26:18.991Z,7.90
2023-12-12T14:28:49.764Z,7.80
2023-12-12T14:31:17.937Z,7.80
2023-12-12T14:33:48.553Z,7.80
2023-12-12T14:36:15.999Z,7.70
2023-12-12T14:38:44.814Z,7.80
2023-12-12T14:41:12.582Z,7.80
2023-12-12T14:43:47.983Z,7.80
2023-12-12T14:46:16.969Z,7.80
2023-12-12T14:48:44.894Z,7.90
2023-12-12T14:51:14.205Z,7.90
2023-12-12T14:53:41.764Z,7.80
2023-12-12T14:56:11.454Z,7.80
2023-12-12T14:58:38.365Z,7.80
2023-12-12T15:01:05.658Z,7.80
2023-12-12T15:03:32.584Z,7.80
2023-12-12T15:05:59.584Z,7.80
2023-12-12T15:08:26.399Z,7.80
2023-12-12T15:10:54.078Z,7.80
2023-12-12T15:13:21.132Z,7.70
2023-12-12T15:15:47.926Z,7.70
2023-12-12T15:18:15.224Z,7.60
2023-12-12T15:20:42.048Z,7.60
2023-12-12T15:23:09.167Z,7.60
2023-12-12T15:25:41.803Z,7.60
2023-12-12T15:28:24.487Z,7.60
2023-12-12T15:30:58.140Z,7.60
2023-12-12T15:33:26.336Z,7.60
2023-12-12T15:35:53.261Z,7.60
2023-12-12T15:38:20.197Z,7.60
2023-12-12T15:40:47.500Z,7.60
2023-12-12T15:43:14.629Z,7.40
2023-12-12T15:45:42.042Z,7.50
2023-12-12T15:48:09.140Z,7.50
2023-12-12T15:50:36.900Z,7.50
2023-12-12T15:53:03.773Z,7.50
2023-12-12T15:55:31.182Z,7.40
2023-12-12T15:57:59.348Z,7.40
2023-12-12T16:00:26.218Z,7.40
2023-12-12T16:02:53.217Z,7.40
2023-12-12T16:05:20.773Z,7.40
2023-12-12T16:07:48.693Z,7.40
2023-12-12T16:10:15.768Z,7.40
2023-12-12T16:12:42.665Z,7.40
2023-12-12T16:15:10.002Z,7.40
2023-12-12T16:17:37.664Z,7.30
2023-12-12T16:20:06.420Z,7.30
2023-12-12T16:22:35.397Z,7.30
2023-12-12T16:25:04.437Z,7.30
2023-12-12T16:27:31.370Z,7.30
2023-12-12T16:29:58.582Z,7.20
2023-12-12T16:32:25.373Z,7.20
2023-12-12T16:34:52.906Z,7.20
2023-12-12T16:37:20.075Z,7.20
2023-12-12T16:39:47.054Z,7.20
2023-12-12T16:42:16.014Z,7.20
2023-12-12T16:44:45.732Z,7.20
2023-12-12T16:47:12.583Z,7.20
2023-12-12T16:49:39.554Z,7.20
2023-12-12T16:52:06.652Z,7.30
2023-12-12T16:54:33.483Z,7.20
2023-12-12T16:57:00.460Z,7.30
2023-12-12T16:59:30.051Z,7.20
2023-12-12T17:01:58.106Z,7.20
2023-12-12T17:04:30.260Z,7.20
2023-12-12T17:06:57.431Z,7.20
2023-12-12T17:09:24.702Z,7.20
2023-12-12T17:11:51.520Z,7.20
2023-12-12T17:14:18.427Z,7.20
2023-12-12T17:16:45.592Z,7.20
2023-12-12T17:19:13.175Z,7.30
2023-12-12T17:21:40.562Z,7.40
2023-12-12T17:24:07.452Z,7.50
2023-12-12T17:26:34.466Z,7.60
2023-12-12T17:29:01.452Z,7.70
2023-12-12T17:31:28.484Z,7.80
2023-12-12T17:33:55.495Z,7.90
2023-12-12T17:36:23.455Z,8.00
2023-12-12T17:38:50.506Z,8.10
2023-12-12T17:41:17.630Z,8.20
2023-12-12T17:43:45.398Z,8.20
2023-12-12T17:46:13.516Z,8.10
2023-12-12T17:48:41.310Z,8.10
2023-12-12T17:51:08.392Z,8.20
2023-12-12T17:53:35.842Z,8.10
2023-12-12T17:56:03.076Z,8.00
2023-12-12T17:58:30.186Z,8.10
2023-12-12T18:00:57.173Z,8.00
2023-12-12T18:03:24.040Z,8.10
2023-12-12T18:05:52.630Z,8.20
2023-12-12T18:08:20.002Z,8.00
2023-12-12T18:10:46.986Z,8.00
2023-12-12T18:13:13.912Z,8.00
2023-12-12T18:15:40.805Z,8.00
2023-12-12T18:18:11.199Z,8.00
2023-12-12T18:20:38.434Z,8.00
2023-12-12T18:23:05.788Z,8.00
2023-12-12T18:25:32.943Z,7.90
2023-12-12T18:28:02.185Z,7.90
2023-12-12T18:30:29.802Z,7.90
2023-12-12T18:32:59.253Z,7.90
2023-12-12T18:35:26.292Z,7.90
2023-12-12T18:37:53.315Z,7.90
2023-12-12T18:40:22.266Z,7.90
2023-12-12T18:42:49.774Z,7.90
2023-12-12T18:45:17.401Z,8.00
2023-12-12T18:47:44.490Z,8.00
2023-12-12T18:50:11.922Z,8.00
2023-12-12T18:52:38.998Z,8.10
2023-12-12T18:55:06.421Z,8.10
2023-12-12T18:57:34.037Z,8.10
2023-12-12T19:00:01.732Z,8.10
2023-12-12T19:02:28.539Z,8.20
2023-12-12T19:04:55.597Z,8.20
2023-12-12T19:07:22.454Z,8.20
2023-12-12T19:09:55.514Z,8.20
2023-12-12T19:12:22.468Z,8.20
2023-12-12T19:14:49.180Z,8.20
2023-12-12T19:17:17.541Z,8.10
2023-12-12T19:19:44.872Z,8.20
2023-12-12T19:22:12.956Z,8.10
2023-12-12T19:24:40.122Z,8.20
2023-12-12T19:27:08.110Z,8.10
2023-12-12T19:29:34.820Z,8.10
2023-12-12T19:32:05.017Z,8.10
2023-12-12T19:34:31.961Z,8.00
2023-12-12T19:36:59.521Z,8.00
2023-12-12T19:39:26.788Z,7.90
2023-12-12T19:41:53.866Z,7.90
2023-12-12T19:44:20.607Z,7.90
2023-12-12T19:46:48.420Z,7.90
2023-12-12T19:49:15.976Z,8.00
2023-12-12T19:51:49.611Z,8.00
2023-12-12T19:54:17.348Z,8.00
2023-12-12T19:56:44.651Z,8.10
2023-12-12T19:59:12.268Z,8.10
2023-12-12T20:01:39.169Z,8.10
2023-12-12T20:04:06.029Z,8.10
2023-12-12T20:06:32.810Z,8.10
2023-12-12T20:08:59.554Z,8.10
2023-12-12T20:11:26.907Z,8.00
2023-12-12T20:13:53.690Z,8.10
2023-12-12T20:16:24.052Z,8.10
2023-12-12T20:18:51.802Z,8.10
2023-12-12T20:21:25.554Z,8.00
2023-12-12T20:23:52.446Z,8.00
2023-12-12T20:26:19.428Z,8.00
2023-12-12T20:28:49.190Z,8.00
2023-12-12T20:31:16.623Z,8.00
2023-12-12T20:33:44.048Z,8.00
2023-12-12T20:36:14.270Z,7.90
2023-12-12T20:38:41.099Z,7.90
2023-12-12T20:41:08.509Z,7.90
2023-12-12T20:43:35.378Z,8.00
2023-12-12T20:46:02.503Z,7.90
2023-12-12T20:48:29.380Z,7.90
2023-12-12T20:50:56.146Z,7.90
2023-12-12T20:53:23.227Z,7.90
2023-12-12T20:55:50.277Z,7.90
2023-12-12T20:58:17.217Z,7.90
2023-12-12T21:00:44.243Z,7.90
2023-12-12T21:03:10.980Z,7.90
2023-12-12T21:05:37.804Z,7.90
2023-12-12T21:08:04.842Z,7.90
2023-12-12T21:10:31.976Z,7.90
2023-12-12T21:12:58.808Z,7.90
2023-12-12T21:15:26.134Z,7.80
2023-12-12T21:17:53.090Z,7.80
2023-12-12T21:20:20.218Z,7.80
2023-12-12T21:22:47.313Z,7.90
2023-12-12T21:25:14.180Z,7.90
2023-12-12T21:27:40.899Z,7.90
2023-12-12T21:30:08.334Z,7.90
2023-12-12T21:32:35.678Z,7.90
2023-12-12T21:35:03.080Z,7.90
2023-12-12T21:37:31.378Z,8.00
2023-12-12T21:40:02.555Z,7.90
2023-12-12T21:42:29.875Z,8.00
2023-12-12T21:44:58.364Z,8.00
2023-12-12T21:47:25.954Z,8.00
2023-12-12T21:49:53.032Z,8.00
2023-12-12T21:52:20.419Z,8.00
2023-12-12T21:54:47.629Z,8.10
2023-12-12T21:57:14.637Z,8.10
2023-12-12T21:59:41.381Z,8.10
2023-12-12T22:02:08.212Z,8.10
2023-12-12T22:04:35.023Z,8.10
2023-12-12T22:07:01.874Z,8.20
2023-12-12T22:09:28.625Z,8.20
2023-12-12T22:11:55.586Z,8.20
2023-12-12T22:14:22.400Z,8.20
2023-12-12T22:16:49.139Z,8.20
2023-12-12T22:19:16.079Z,8.10
2023-12-12T22:21:43.017Z,8.00
2023-12-12T22:24:09.808Z,7.90
2023-12-12T22:26:36.616Z,7.80
2023-12-12T22:29:04.078Z,7.70
2023-12-12T22:31:31.341Z,7.70
2023-12-12T22:33:58.514Z,7.60
2023-12-12T22:36:25.211Z,7.60
2023-12-12T22:38:53.486Z,7.60
2023-12-12T22:41:21.333Z,7.60
2023-12-12T22:43:48.411Z,7.50
2023-12-12T22:46:19.898Z,7.50
2023-12-12T22:48:47.096Z,7.50
2023-12-12T22:51:17.976Z,7.50
2023-12-12T22:53:44.882Z,7.40
2023-12-12T22:56:15.388Z,7.40
2023-12-12T22:58:42.549Z,7.40
2023-12-12T23:01:11.217Z,7.40
2023-12-12T23:03:38.225Z,7.40
2023-12-12T23:06:06.347Z,7.40
2023-12-12T23:08:36.412Z,7.40
2023-12-12T23:11:03.800Z,7.40
2023-12-12T23:13:30.699Z,7.40
2023-12-12T23:15:57.521Z,7.40
2023-12-12T23:18:24.608Z,7.40
2023-12-12T23:20:54.918Z,7.40
2023-12-12T23:23:23.328Z,7.40
2023-12-12T23:25:50.898Z,7.40
2023-12-12T23:28:18.161Z,7.40
2023-12-12T23:30:53.135Z,7.40
2023-12-12T23:33:27.990Z,7.30
2023-12-12T23:35:54.922Z,7.30
2023-12-12T23:38:21.665Z,7.30
2023-12-12T23:40:48.554Z,7.30
2023-12-12T23:43:15.453Z,7.30
2023-12-12T23:45:45.604Z,7.30
2023-12-12T23:48:12.586Z,7.30
2023-12-12T23:50:39.345Z,7.20
2023-12-12T23:53:06.125Z,7.20
2023-12-12T23:55:33.059Z,7.10
2023-12-12T23:58:00.653Z,7.10
